sensor_id;sensor_type;location;lat;lon;timestamp;pressure;altitude;pressure_sealevel;temperature;humidity
33280;BME280;20403;43.114;12.434;2023-09-07T00:00:21;99417.06;;;18.74;100.00
33280;BME280;20403;43.114;12.434;2023-09-07T00:02:46;99400.44;;;18.73;100.00
33280;BME280;20403;43.114;12.434;2023-09-07T00:05:12;99406.25;;;18.80;100.00
33280;BME280;20403;43.114;12.434;2023-09-07T00:07:38;99394.09;;;18.84;100.00
33280;BME280;20403;43.114;12.434;2023-09-07T00:10:04;99393.81;;;18.96;100.00
33280;BME280;20403;43.114;12.434;2023-09-07T00:12:30;99395.41;;;18.92;100.00
33280;BME280;20403;43.114;12.434;2023-09-07T00:14:57;99392.50;;;18.88;100.00
33280;BME280;20403;43.114;12.434;2023-09-07T00:17:22;99388.56;;;18.86;100.00
33280;BME280;20403;43.114;12.434;2023-09-07T00:19:48;99389.38;;;18.81;100.00
33280;BME280;20403;43.114;12.434;2023-09-07T00:22:14;99384.00;;;18.97;100.00
33280;BME280;20403;43.114;12.434;2023-09-07T00:24:40;99386.38;;;19.03;100.00
33280;BME280;20403;43.114;12.434;2023-09-07T00:27:05;99389.78;;;19.14;100.00
33280;BME280;20403;43.114;12.434;2023-09-07T00:29:34;99383.97;;;19.12;100.00
33280;BME280;20403;43.114;12.434;2023-09-07T00:32:00;99376.91;;;18.92;100.00
33280;BME280;20403;43.114;12.434;2023-09-07T00:34:25;99369.50;;;18.94;100.00
33280;BME280;20403;43.114;12.434;2023-09-07T00:36:50;99369.81;;;18.77;100.00
33280;BME280;20403;43.114;12.434;2023-09-07T00:39:16;99371.69;;;18.77;100.00
33280;BME280;20403;43.114;12.434;2023-09-07T00:41:41;99369.53;;;18.68;100.00
33280;BME280;20403;43.114;12.434;2023-09-07T00:44:07;99378.03;;;18.60;100.00
33280;BME280;20403;43.114;12.434;2023-09-07T00:46:32;99378.31;;;18.54;100.00
33280;BME280;20403;43.114;12.434;2023-09-07T00:48:58;99380.69;;;18.45;100.00
33280;BME280;20403;43.114;12.434;2023-09-07T00:51:23;99370.13;;;18.40;100.00
33280;BME280;20403;43.114;12.434;2023-09-07T00:53:49;99367.25;;;18.31;100.00
33280;BME280;20403;43.114;12.434;2023-09-07T00:56:15;99370.16;;;18.24;100.00
33280;BME280;20403;43.114;12.434;2023-09-07T00:58:42;99367.22;;;18.41;100.00
33280;BME280;20403;43.114;12.434;2023-09-07T01:01:08;99364.31;;;18.43;100.00
33280;BME280;20403;43.114;12.434;2023-09-07T01:03:34;99370.91;;;18.45;100.00
33280;BME280;20403;43.114;12.434;2023-09-07T01:06:06;99368.53;;;18.39;100.00
33280;BME280;20403;43.114;12.434;2023-09-07T01:08:36;99359.84;;;18.33;100.00
33280;BME280;20403;43.114;12.434;2023-09-07T01:11:17;99370.16;;;18.35;100.00
33280;BME280;20403;43.114;12.434;2023-09-07T01:13:45;99369.34;;;18.34;100.00
33280;BME280;20403;43.114;12.434;2023-09-07T01:16:12;99372.25;;;18.22;100.00
33280;BME280;20403;43.114;12.434;2023-09-07T01:18:39;99379.41;;;18.17;100.00
33280;BME280;20403;43.114;12.434;2023-09-07T01:21:06;99378.06;;;18.24;100.00
33280;BME280;20403;43.114;12.434;2023-09-07T01:23:37;99380.44;;;18.26;100.00
33280;BME280;20403;43.114;12.434;2023-09-07T01:26:05;99377.53;;;18.22;100.00
33280;BME280;20403;43.114;12.434;2023-09-07T01:28:30;99379.91;;;18.24;100.00
33280;BME280;20403;43.114;12.434;2023-09-07T01:30:56;99372.53;;;18.31;100.00
33280;BME280;20403;43.114;12.434;2023-09-07T01:33:24;99378.34;;;18.28;100.00
33280;BME280;20403;43.114;12.434;2023-09-07T01:35:49;99386.25;;;18.18;100.00
33280;BME280;20403;43.114;12.434;2023-09-07T01:38:15;99383.88;;;18.16;100.00
33280;BME280;20403;43.114;12.434;2023-09-07T01:40:40;99387.56;;;18.05;100.00
33280;BME280;20403;43.114;12.434;2023-09-07T01:43:05;99384.13;;;18.15;100.00
33280;BME280;20403;43.114;12.434;2023-09-07T01:45:31;99383.63;;;18.08;100.00
33280;BME280;20403;43.114;12.434;2023-09-07T01:47:58;99385.72;;;18.05;100.00
33280;BME280;20403;43.114;12.434;2023-09-07T01:50:24;99379.38;;;18.01;100.00
33280;BME280;20403;43.114;12.434;2023-09-07T01:52:50;99381.22;;;18.06;100.00
33280;BME280;20403;43.114;12.434;2023-09-07T01:55:16;99377.00;;;18.00;100.00
33280;BME280;20403;43.114;12.434;2023-09-07T01:57:42;99385.44;;;17.97;100.00
33280;BME280;20403;43.114;12.434;2023-09-07T02:00:07;99390.47;;;17.98;100.00
33280;BME280;20403;43.114;12.434;2023-09-07T02:02:33;99384.41;;;17.98;100.00
33280;BME280;20403;43.114;12.434;2023-09-07T02:04:58;99388.34;;;17.85;100.00
33280;BME280;20403;43.114;12.434;2023-09-07T02:07:24;99387.03;;;17.93;100.00
33280;BME280;20403;43.114;12.434;2023-09-07T02:09:49;99377.00;;;17.90;100.00
33280;BME280;20403;43.114;12.434;2023-09-07T02:12:14;99386.25;;;17.82;100.00
33280;BME280;20403;43.114;12.434;2023-09-07T02:14:40;99378.28;;;17.77;100.00
33280;BME280;20403;43.114;12.434;2023-09-07T02:17:05;99382.50;;;17.73;100.00
33280;BME280;20403;43.114;12.434;2023-09-07T02:19:31;99379.56;;;17.64;100.00
33280;BME280;20403;43.114;12.434;2023-09-07T02:21:57;99386.41;;;17.60;100.00
33280;BME280;20403;43.114;12.434;2023-09-07T02:24:22;99380.06;;;17.40;100.00
33280;BME280;20403;43.114;12.434;2023-09-07T02:26:47;99385.88;;;17.42;100.00
33280;BME280;20403;43.114;12.434;2023-09-07T02:29:13;99381.63;;;17.36;100.00
33280;BME280;20403;43.114;12.434;2023-09-07T02:31:41;99375.56;;;17.41;100.00
33280;BME280;20403;43.114;12.434;2023-09-07T02:34:07;99374.78;;;17.40;100.00
33280;BME280;20403;43.114;12.434;2023-09-07T02:36:33;99374.25;;;17.38;100.00
33280;BME280;20403;43.114;12.434;2023-09-07T02:39:00;99373.41;;;17.33;100.00
33280;BME280;20403;43.114;12.434;2023-09-07T02:41:25;99372.13;;;17.35;100.00
33280;BME280;20403;43.114;12.434;2023-09-07T02:43:51;99376.34;;;17.47;100.00
33280;BME280;20403;43.114;12.434;2023-09-07T02:46:16;99376.91;;;17.49;100.00
33280;BME280;20403;43.114;12.434;2023-09-07T06:04:38;99398.44;;;19.85;100.00
33280;BME280;20403;43.114;12.434;2023-09-07T06:07:04;99399.28;;;20.09;100.00
33280;BME280;20403;43.114;12.434;2023-09-07T06:09:29;99400.00;;;20.20;100.00
33280;BME280;20403;43.114;12.434;2023-09-07T06:11:55;99403.69;;;20.24;100.00
33280;BME280;20403;43.114;12.434;2023-09-07T06:14:20;99401.19;;;20.38;100.00
33280;BME280;20403;43.114;12.434;2023-09-07T06:16:46;99401.53;;;20.55;100.00
33280;BME280;20403;43.114;12.434;2023-09-07T06:19:11;99397.94;;;20.75;100.00
33280;BME280;20403;43.114;12.434;2023-09-07T06:21:36;99407.81;;;20.94;100.00
33280;BME280;20403;43.114;12.434;2023-09-07T06:24:02;99408.63;;;21.13;100.00
33280;BME280;20403;43.114;12.434;2023-09-07T06:26:27;99410.38;;;21.23;100.00
33280;BME280;20403;43.114;12.434;2023-09-07T06:28:53;99405.34;;;21.46;100.00
33280;BME280;20403;43.114;12.434;2023-09-07T06:31:18;99399.09;;;21.55;100.00
33280;BME280;20403;43.114;12.434;2023-09-07T06:33:44;99400.78;;;21.70;100.00
33280;BME280;20403;43.114;12.434;2023-09-07T06:36:09;99410.78;;;21.92;100.00
33280;BME280;20403;43.114;12.434;2023-09-07T06:38:34;99402.59;;;22.08;100.00
33280;BME280;20403;43.114;12.434;2023-09-07T06:41:00;99411.56;;;22.12;100.00
33280;BME280;20403;43.114;12.434;2023-09-07T06:43:25;99404.84;;;22.33;100.00
33280;BME280;20403;43.114;12.434;2023-09-07T06:45:51;99403.22;;;22.51;100.00
33280;BME280;20403;43.114;12.434;2023-09-07T06:48:16;99410.50;;;22.73;100.00
33280;BME280;20403;43.114;12.434;2023-09-07T06:50:41;99409.75;;;22.86;100.00
33280;BME280;20403;43.114;12.434;2023-09-07T06:53:07;99407.91;;;23.01;100.00
33280;BME280;20403;43.114;12.434;2023-09-07T06:55:33;99413.53;;;23.13;100.00
33280;BME280;20403;43.114;12.434;2023-09-07T06:57:58;99410.41;;;23.34;100.00
33280;BME280;20403;43.114;12.434;2023-09-07T07:00:26;99413.38;;;23.46;100.00
33280;BME280;20403;43.114;12.434;2023-09-07T07:02:52;99416.91;;;23.55;100.00
33280;BME280;20403;43.114;12.434;2023-09-07T07:05:18;99411.22;;;23.70;100.00
33280;BME280;20403;43.114;12.434;2023-09-07T07:07:43;99419.38;;;23.88;100.00
33280;BME280;20403;43.114;12.434;2023-09-07T07:10:09;99417.31;;;24.07;100.00
33280;BME280;20403;43.114;12.434;2023-09-07T07:12:34;99413.19;;;24.24;100.00
33280;BME280;20403;43.114;12.434;2023-09-07T07:15:00;99415.91;;;24.32;100.00
33280;BME280;20403;43.114;12.434;2023-09-07T07:17:27;99415.97;;;24.41;100.00
33280;BME280;20403;43.114;12.434;2023-09-07T07:19:52;99409.94;;;24.49;100.00
33280;BME280;20403;43.114;12.434;2023-09-07T07:22:17;99412.66;;;24.67;100.00
33280;BME280;20403;43.114;12.434;2023-09-07T07:24:43;99417.13;;;24.80;100.00
33280;BME280;20403;43.114;12.434;2023-09-07T07:27:08;99417.63;;;24.91;100.00
33280;BME280;20403;43.114;12.434;2023-09-07T07:29:35;99411.84;;;25.06;100.00
33280;BME280;20403;43.114;12.434;2023-09-07T07:32:01;99399.78;;;25.17;100.00
33280;BME280;20403;43.114;12.434;2023-09-07T07:34:26;99409.41;;;25.27;100.00
33280;BME280;20403;43.114;12.434;2023-09-07T07:36:52;99415.09;;;25.43;100.00
33280;BME280;20403;43.114;12.434;2023-09-07T07:39:17;99403.00;;;25.54;100.00
33280;BME280;20403;43.114;12.434;2023-09-07T07:41:42;99408.84;;;25.65;100.00
33280;BME280;20403;43.114;12.434;2023-09-07T07:44:10;99411.34;;;25.70;100.00
33280;BME280;20403;43.114;12.434;2023-09-07T07:46:36;99403.47;;;25.83;100.00
33280;BME280;20403;43.114;12.434;2023-09-07T07:49:01;99402.84;;;25.86;100.00
33280;BME280;20403;43.114;12.434;2023-09-07T07:51:27;99404.91;;;25.97;100.00
33280;BME280;20403;43.114;12.434;2023-09-07T07:53:54;99401.28;;;26.02;100.00
33280;BME280;20403;43.114;12.434;2023-09-07T07:56:20;99390.09;;;26.17;100.00
33280;BME280;20403;43.114;12.434;2023-09-07T07:58:45;99396.19;;;26.27;100.00
33280;BME280;20403;43.114;12.434;2023-09-07T08:01:18;99396.53;;;26.25;100.00
33280;BME280;20403;43.114;12.434;2023-09-07T08:03:43;99388.59;;;26.46;100.00
33280;BME280;20403;43.114;12.434;2023-09-07T08:06:10;99391.41;;;26.58;100.00
33280;BME280;20403;43.114;12.434;2023-09-07T08:08:36;99391.84;;;26.69;100.00
33280;BME280;20403;43.114;12.434;2023-09-07T08:11:02;99386.50;;;26.69;100.00
33280;BME280;20403;43.114;12.434;2023-09-07T08:13:32;99383.91;;;26.81;100.00
33280;BME280;20403;43.114;12.434;2023-09-07T08:15:58;99393.13;;;26.93;100.00
33280;BME280;20403;43.114;12.434;2023-09-07T08:18:24;99395.13;;;27.04;100.00
33280;BME280;20403;43.114;12.434;2023-09-07T08:20:49;99392.69;;;27.12;100.00
33280;BME280;20403;43.114;12.434;2023-09-07T08:23:14;99390.13;;;27.24;100.00
33280;BME280;20403;43.114;12.434;2023-09-07T08:25:40;99385.13;;;27.43;100.00
33280;BME280;20403;43.114;12.434;2023-09-07T08:28:10;99383.00;;;27.49;100.00
33280;BME280;20403;43.114;12.434;2023-09-07T08:30:35;99382.41;;;27.64;100.00
33280;BME280;20403;43.114;12.434;2023-09-07T08:33:02;99374.41;;;27.77;100.00
33280;BME280;20403;43.114;12.434;2023-09-07T08:35:27;99376.38;;;27.89;100.00
33280;BME280;20403;43.114;12.434;2023-09-07T08:37:54;99385.34;;;27.93;100.00
33280;BME280;20403;43.114;12.434;2023-09-07T08:40:19;99378.66;;;27.99;81.33
33280;BME280;20403;43.114;12.434;2023-09-07T08:42:46;99376.44;;;28.01;76.61
33280;BME280;20403;43.114;12.434;2023-09-07T08:45:13;99374.09;;;28.12;74.21
33280;BME280;20403;43.114;12.434;2023-09-07T08:47:41;99378.81;;;28.15;76.87
33280;BME280;20403;43.114;12.434;2023-09-07T08:50:07;99375.25;;;28.23;66.73
33280;BME280;20403;43.114;12.434;2023-09-07T08:52:37;99382.72;;;28.17;66.12
33280;BME280;20403;43.114;12.434;2023-09-07T08:55:03;99378.63;;;28.32;66.16
33280;BME280;20403;43.114;12.434;2023-09-07T08:57:32;99374.53;;;28.47;65.38
33280;BME280;20403;43.114;12.434;2023-09-07T08:59:58;99379.44;;;28.57;64.25
33280;BME280;20403;43.114;12.434;2023-09-07T09:02:23;99370.97;;;28.80;63.71
33280;BME280;20403;43.114;12.434;2023-09-07T09:04:48;99369.06;;;28.80;63.96
33280;BME280;20403;43.114;12.434;2023-09-07T09:07:14;99368.72;;;28.82;62.91
33280;BME280;20403;43.114;12.434;2023-09-07T09:09:39;99361.63;;;29.02;65.92
33280;BME280;20403;43.114;12.434;2023-09-07T09:12:09;99357.84;;;29.15;62.92
33280;BME280;20403;43.114;12.434;2023-09-07T09:14:34;99371.22;;;29.40;60.66
33280;BME280;20403;43.114;12.434;2023-09-07T09:17:00;99362.13;;;29.44;57.04
33280;BME280;20403;43.114;12.434;2023-09-07T09:19:35;99364.38;;;29.42;55.51
33280;BME280;20403;43.114;12.434;2023-09-07T09:22:01;99363.34;;;29.47;56.07
33280;BME280;20403;43.114;12.434;2023-09-07T09:24:32;99356.41;;;29.46;53.39
33280;BME280;20403;43.114;12.434;2023-09-07T09:26:58;99361.72;;;29.30;53.71
33280;BME280;20403;43.114;12.434;2023-09-07T09:29:24;99355.28;;;29.47;52.86
33280;BME280;20403;43.114;12.434;2023-09-07T09:31:51;99358.63;;;29.44;52.86
33280;BME280;20403;43.114;12.434;2023-09-07T09:34:18;99355.56;;;29.70;52.96
33280;BME280;20403;43.114;12.434;2023-09-07T09:36:44;99355.00;;;29.92;52.33
33280;BME280;20403;43.114;12.434;2023-09-07T09:39:09;99351.88;;;29.90;52.07
33280;BME280;20403;43.114;12.434;2023-09-07T09:41:35;99344.41;;;30.00;52.19
33280;BME280;20403;43.114;12.434;2023-09-07T09:44:04;99340.59;;;30.01;50.88
33280;BME280;20403;43.114;12.434;2023-09-07T09:46:31;99345.34;;;29.91;51.64
33280;BME280;20403;43.114;12.434;2023-09-07T09:48:57;99346.75;;;30.01;50.66
33280;BME280;20403;43.114;12.434;2023-09-07T09:51:23;99343.47;;;30.08;50.21
33280;BME280;20403;43.114;12.434;2023-09-07T09:53:50;99342.34;;;30.09;51.23
33280;BME280;20403;43.114;12.434;2023-09-07T09:56:16;99337.56;;;30.18;51.90
33280;BME280;20403;43.114;12.434;2023-09-07T09:58:42;99334.38;;;30.28;51.99
33280;BME280;20403;43.114;12.434;2023-09-07T10:01:08;99329.25;;;30.39;52.18
33280;BME280;20403;43.114;12.434;2023-09-07T10:03:38;99316.56;;;30.55;52.21
33280;BME280;20403;43.114;12.434;2023-09-07T10:06:24;99324.66;;;30.75;52.17
33280;BME280;20403;43.114;12.434;2023-09-07T10:08:58;99318.63;;;30.62;50.21
33280;BME280;20403;43.114;12.434;2023-09-07T10:11:32;99325.56;;;30.63;49.49
33280;BME280;20403;43.114;12.434;2023-09-07T10:13:59;99330.25;;;30.66;51.99
33280;BME280;20403;43.114;12.434;2023-09-07T10:16:25;99317.38;;;30.75;50.32
33280;BME280;20403;43.114;12.434;2023-09-07T10:18:52;99328.06;;;30.88;50.12
33280;BME280;20403;43.114;12.434;2023-09-07T10:21:18;99317.88;;;30.81;48.37
33280;BME280;20403;43.114;12.434;2023-09-07T10:23:45;99313.88;;;30.91;49.97
33280;BME280;20403;43.114;12.434;2023-09-07T10:26:15;99307.78;;;30.94;47.55
33280;BME280;20403;43.114;12.434;2023-09-07T10:28:42;99314.25;;;31.09;48.31
33280;BME280;20403;43.114;12.434;2023-09-07T10:31:19;99317.38;;;31.11;50.27
33280;BME280;20403;43.114;12.434;2023-09-07T10:33:45;99323.91;;;31.10;47.46
33280;BME280;20403;43.114;12.434;2023-09-07T10:36:27;99317.75;;;30.74;48.47
33280;BME280;20403;43.114;12.434;2023-09-07T10:38:55;99322.16;;;30.66;49.05
33280;BME280;20403;43.114;12.434;2023-09-07T10:41:21;99312.63;;;30.69;49.89
33280;BME280;20403;43.114;12.434;2023-09-07T10:43:49;99310.84;;;30.92;49.33
33280;BME280;20403;43.114;12.434;2023-09-07T10:46:14;99310.72;;;30.85;48.72
33280;BME280;20403;43.114;12.434;2023-09-07T10:48:43;99308.88;;;31.09;47.55
33280;BME280;20403;43.114;12.434;2023-09-07T10:51:08;99296.97;;;31.29;47.48
33280;BME280;20403;43.114;12.434;2023-09-07T10:53:34;99306.31;;;31.35;46.76
33280;BME280;20403;43.114;12.434;2023-09-07T10:56:02;99302.50;;;31.36;46.83
33280;BME280;20403;43.114;12.434;2023-09-07T10:58:33;99297.94;;;31.21;47.05
33280;BME280;20403;43.114;12.434;2023-09-07T11:01:00;99302.41;;;31.33;46.00
33280;BME280;20403;43.114;12.434;2023-09-07T11:03:27;99296.59;;;31.31;47.41
33280;BME280;20403;43.114;12.434;2023-09-07T11:06:17;99291.88;;;31.24;46.23
33280;BME280;20403;43.114;12.434;2023-09-07T11:08:45;99289.09;;;31.59;46.18
33280;BME280;20403;43.114;12.434;2023-09-07T11:11:12;99294.53;;;31.63;46.69
33280;BME280;20403;43.114;12.434;2023-09-07T11:13:38;99287.59;;;31.85;45.66
33280;BME280;20403;43.114;12.434;2023-09-07T11:16:07;99284.84;;;32.05;45.34
33280;BME280;20403;43.114;12.434;2023-09-07T11:18:33;99277.56;;;32.32;43.42
33280;BME280;20403;43.114;12.434;2023-09-07T11:21:01;99282.88;;;32.51;41.99
33280;BME280;20403;43.114;12.434;2023-09-07T11:23:30;99270.47;;;32.50;42.80
33280;BME280;20403;43.114;12.434;2023-09-07T11:26:04;99272.19;;;32.58;44.15
33280;BME280;20403;43.114;12.434;2023-09-07T11:28:30;99284.63;;;32.40;42.72
33280;BME280;20403;43.114;12.434;2023-09-07T11:30:55;99274.63;;;32.44;43.22
33280;BME280;20403;43.114;12.434;2023-09-07T11:33:23;99270.06;;;32.48;43.81
33280;BME280;20403;43.114;12.434;2023-09-07T11:35:50;99272.28;;;32.65;43.51
33280;BME280;20403;43.114;12.434;2023-09-07T11:38:17;99275.50;;;32.78;43.42
33280;BME280;20403;43.114;12.434;2023-09-07T11:40:43;99271.63;;;33.06;43.89
33280;BME280;20403;43.114;12.434;2023-09-07T11:43:17;99268.88;;;32.72;42.33
33280;BME280;20403;43.114;12.434;2023-09-07T11:45:46;99270.28;;;32.62;42.50
33280;BME280;20403;43.114;12.434;2023-09-07T11:48:12;99265.63;;;32.59;43.19
33280;BME280;20403;43.114;12.434;2023-09-07T11:50:38;99264.50;;;32.94;44.56
33280;BME280;20403;43.114;12.434;2023-09-07T11:53:05;99261.41;;;32.92;43.35
33280;BME280;20403;43.114;12.434;2023-09-07T11:55:32;99258.75;;;32.96;42.68
33280;BME280;20403;43.114;12.434;2023-09-07T11:57:58;99261.06;;;32.97;42.78
33280;BME280;20403;43.114;12.434;2023-09-07T12:00:24;99255.59;;;32.90;41.65
33280;BME280;20403;43.114;12.434;2023-09-07T12:02:49;99253.09;;;33.04;41.37
33280;BME280;20403;43.114;12.434;2023-09-07T12:05:15;99255.63;;;32.94;41.99
33280;BME280;20403;43.114;12.434;2023-09-07T12:07:41;99253.22;;;32.85;41.15
33280;BME280;20403;43.114;12.434;2023-09-07T12:10:08;99250.38;;;32.74;41.17
33280;BME280;20403;43.114;12.434;2023-09-07T12:12:39;99247.88;;;32.89;40.02
33280;BME280;20403;43.114;12.434;2023-09-07T12:15:06;99242.22;;;33.01;41.79
33280;BME280;20403;43.114;12.434;2023-09-07T12:17:32;99246.38;;;32.95;43.24
33280;BME280;20403;43.114;12.434;2023-09-07T12:19:57;99247.72;;;33.08;40.18
33280;BME280;20403;43.114;12.434;2023-09-07T12:22:23;99247.72;;;33.45;39.19
33280;BME280;20403;43.114;12.434;2023-09-07T12:24:49;99249.38;;;33.57;38.85
33280;BME280;20403;43.114;12.434;2023-09-07T12:27:14;99246.81;;;33.31;39.06
33280;BME280;20403;43.114;12.434;2023-09-07T12:29:40;99247.53;;;33.65;39.93
33280;BME280;20403;43.114;12.434;2023-09-07T12:32:05;99242.00;;;33.54;38.99
33280;BME280;20403;43.114;12.434;2023-09-07T12:34:31;99244.16;;;33.38;39.34
33280;BME280;20403;43.114;12.434;2023-09-07T12:36:56;99244.31;;;33.15;38.58
33280;BME280;20403;43.114;12.434;2023-09-07T12:39:22;99241.19;;;33.50;38.51
33280;BME280;20403;43.114;12.434;2023-09-07T12:41:47;99244.81;;;33.24;39.03
33280;BME280;20403;43.114;12.434;2023-09-07T12:44:12;99240.09;;;33.17;38.79
33280;BME280;20403;43.114;12.434;2023-09-07T12:46:38;99239.44;;;33.27;38.69
33280;BME280;20403;43.114;12.434;2023-09-07T12:49:03;99243.97;;;33.16;38.37
33280;BME280;20403;43.114;12.434;2023-09-07T12:51:29;99246.44;;;33.32;39.93
33280;BME280;20403;43.114;12.434;2023-09-07T12:53:55;99230.97;;;33.70;39.68
33280;BME280;20403;43.114;12.434;2023-09-07T12:56:21;99229.84;;;33.78;38.99
33280;BME280;20403;43.114;12.434;2023-09-07T12:58:46;99236.06;;;33.79;39.30
33280;BME280;20403;43.114;12.434;2023-09-07T13:01:12;99223.72;;;33.85;39.02
33280;BME280;20403;43.114;12.434;2023-09-07T13:03:40;99231.94;;;33.55;38.83
33280;BME280;20403;43.114;12.434;2023-09-07T13:06:06;99222.50;;;33.34;39.38
33280;BME280;20403;43.114;12.434;2023-09-07T13:08:31;99232.31;;;33.49;39.50
33280;BME280;20403;43.114;12.434;2023-09-07T13:10:56;99217.44;;;33.70;38.20
33280;BME280;20403;43.114;12.434;2023-09-07T13:13:22;99224.91;;;33.43;39.28
33280;BME280;20403;43.114;12.434;2023-09-07T13:15:51;99214.84;;;33.43;39.51
33280;BME280;20403;43.114;12.434;2023-09-07T13:18:16;99222.59;;;33.41;40.98
33280;BME280;20403;43.114;12.434;2023-09-07T13:20:42;99224.22;;;33.12;38.86
33280;BME280;20403;43.114;12.434;2023-09-07T13:23:07;99216.19;;;33.19;39.28
33280;BME280;20403;43.114;12.434;2023-09-07T13:25:32;99227.09;;;32.96;40.45
33280;BME280;20403;43.114;12.434;2023-09-07T13:27:58;99219.28;;;32.54;40.82
33280;BME280;20403;43.114;12.434;2023-09-07T13:30:23;99208.59;;;32.64;39.74
33280;BME280;20403;43.114;12.434;2023-09-07T13:32:49;99218.72;;;32.71;40.81
33280;BME280;20403;43.114;12.434;2023-09-07T13:35:15;99215.59;;;32.69;39.09
33280;BME280;20403;43.114;12.434;2023-09-07T13:37:41;99214.38;;;32.63;40.07
33280;BME280;20403;43.114;12.434;2023-09-07T13:40:06;99218.09;;;32.51;40.20
33280;BME280;20403;43.114;12.434;2023-09-07T13:42:33;99223.34;;;32.44;40.19
33280;BME280;20403;43.114;12.434;2023-09-07T13:44:58;99216.06;;;32.48;39.84
33280;BME280;20403;43.114;12.434;2023-09-07T13:47:24;99217.97;;;32.17;40.19
33280;BME280;20403;43.114;12.434;2023-09-07T13:49:49;99216.00;;;32.14;41.46
33280;BME280;20403;43.114;12.434;2023-09-07T13:52:15;99217.09;;;32.10;40.84
33280;BME280;20403;43.114;12.434;2023-09-07T13:54:40;99215.19;;;31.87;40.92
33280;BME280;20403;43.114;12.434;2023-09-07T13:57:06;99227.16;;;31.90;41.07
33280;BME280;20403;43.114;12.434;2023-09-07T13:59:31;99220.91;;;31.82;40.74
33280;BME280;20403;43.114;12.434;2023-09-07T14:02:00;99222.44;;;31.83;41.07
33280;BME280;20403;43.114;12.434;2023-09-07T14:04:25;99215.38;;;31.75;40.91
33280;BME280;20403;43.114;12.434;2023-09-07T14:06:50;99209.31;;;31.58;41.05
33280;BME280;20403;43.114;12.434;2023-09-07T14:09:16;99216.34;;;31.63;41.51
33280;BME280;20403;43.114;12.434;2023-09-07T14:11:42;99209.56;;;31.73;41.19
33280;BME280;20403;43.114;12.434;2023-09-07T14:14:08;99212.22;;;31.69;40.96
33280;BME280;20403;43.114;12.434;2023-09-07T14:16:33;99223.28;;;31.64;41.69
33280;BME280;20403;43.114;12.434;2023-09-07T14:18:59;99217.13;;;31.21;41.45
33280;BME280;20403;43.114;12.434;2023-09-07T14:21:24;99216.44;;;31.05;42.67
33280;BME280;20403;43.114;12.434;2023-09-07T14:23:49;99212.53;;;30.83;42.70
33280;BME280;20403;43.114;12.434;2023-09-07T14:26:15;99208.28;;;30.82;42.35
33280;BME280;20403;43.114;12.434;2023-09-07T14:28:41;99207.28;;;30.70;43.57
33280;BME280;20403;43.114;12.434;2023-09-07T14:31:06;99209.25;;;30.54;43.52
33280;BME280;20403;43.114;12.434;2023-09-07T14:33:33;99211.69;;;30.43;43.43
33280;BME280;20403;43.114;12.434;2023-09-07T14:35:59;99216.69;;;30.25;43.74
33280;BME280;20403;43.114;12.434;2023-09-07T14:38:24;99211.22;;;30.22;43.87
33280;BME280;20403;43.114;12.434;2023-09-07T14:40:52;99205.50;;;30.23;43.23
33280;BME280;20403;43.114;12.434;2023-09-07T14:43:21;99218.69;;;30.28;43.51
33280;BME280;20403;43.114;12.434;2023-09-07T14:45:47;99213.22;;;30.25;43.35
33280;BME280;20403;43.114;12.434;2023-09-07T14:48:13;99218.19;;;30.07;44.11
33280;BME280;20403;43.114;12.434;2023-09-07T14:50:38;99218.69;;;29.97;45.09
33280;BME280;20403;43.114;12.434;2023-09-07T14:53:04;99222.72;;;29.87;44.97
33280;BME280;20403;43.114;12.434;2023-09-07T14:55:29;99222.03;;;29.74;45.31
33280;BME280;20403;43.114;12.434;2023-09-07T14:57:55;99220.59;;;29.64;45.50
33280;BME280;20403;43.114;12.434;2023-09-07T15:00:20;99213.50;;;29.56;44.85
33280;BME280;20403;43.114;12.434;2023-09-07T15:02:47;99223.97;;;29.45;45.57
33280;BME280;20403;43.114;12.434;2023-09-07T15:05:13;99226.28;;;29.31;46.79
33280;BME280;20403;43.114;12.434;2023-09-07T15:07:38;99217.59;;;29.22;47.21
33280;BME280;20403;43.114;12.434;2023-09-07T15:10:04;99216.13;;;29.24;46.90
33280;BME280;20403;43.114;12.434;2023-09-07T15:12:29;99223.75;;;29.22;45.91
33280;BME280;20403;43.114;12.434;2023-09-07T15:14:55;99221.31;;;29.17;46.28
33280;BME280;20403;43.114;12.434;2023-09-07T15:17:20;99222.66;;;29.11;47.77
33280;BME280;20403;43.114;12.434;2023-09-07T15:19:45;99218.75;;;29.08;46.22
33280;BME280;20403;43.114;12.434;2023-09-07T15:22:11;99219.22;;;29.10;46.34
33280;BME280;20403;43.114;12.434;2023-09-07T15:24:36;99216.47;;;29.23;45.33
33280;BME280;20403;43.114;12.434;2023-09-07T15:27:12;99219.84;;;29.20;46.03
33280;BME280;20403;43.114;12.434;2023-09-07T15:29:38;99220.44;;;29.13;46.46
33280;BME280;20403;43.114;12.434;2023-09-07T15:32:07;99229.19;;;29.10;46.21
33280;BME280;20403;43.114;12.434;2023-09-07T15:34:32;99229.94;;;29.10;46.58
33280;BME280;20403;43.114;12.434;2023-09-07T15:37:00;99231.09;;;28.97;46.81
33280;BME280;20403;43.114;12.434;2023-09-07T15:39:25;99242.41;;;28.90;47.01
33280;BME280;20403;43.114;12.434;2023-09-07T15:41:50;99230.03;;;28.74;47.45
33280;BME280;20403;43.114;12.434;2023-09-07T15:44:18;99234.75;;;28.64;47.56
33280;BME280;20403;43.114;12.434;2023-09-07T15:46:43;99228.22;;;28.49;46.77
33280;BME280;20403;43.114;12.434;2023-09-07T15:49:09;99242.28;;;28.34;47.16
33280;BME280;20403;43.114;12.434;2023-09-07T15:51:34;99229.53;;;28.31;48.32
33280;BME280;20403;43.114;12.434;2023-09-07T15:54:00;99232.88;;;28.28;47.27
33280;BME280;20403;43.114;12.434;2023-09-07T15:56:25;99232.13;;;28.15;47.84